Time;durP1;ratioP1;P1;durP2;ratioP2;P2;SDS_P1;SDS_P2;PMS_P1;PMS_P2;Temp;Humidity;BMP_temperature;BMP_pressure;BME280_temperature;BME280_humidity;BME280_pressure;Samples;Min_cycle;Max_cycle;Signal;HPM_P1;HPM_P2
2023/08/23 00:00:31;;;;;;;27.52;20.40;;;;;;;;;;5008342;28;20048;-69
2023/08/23 00:02:57;;;;;;;30.08;21.60;;;;;;;;;;5008778;28;20030;-69
2023/08/23 00:05:23;;;;;;;22.88;20.48;;;;;;;;;;5008651;28;20049;-68
2023/08/23 00:07:48;;;;;;;27.90;20.42;;;;;;;;;;5008192;28;20026;-69
2023/08/23 00:10:14;;;;;;;30.00;20.08;;;;;;;;;;5008732;28;20033;-69
2023/08/23 00:12:40;;;;;;;29.60;20.38;;;;;;;;;;5008382;28;20036;-69
2023/08/23 00:15:07;;;;;;;28.02;19.30;;;;;;;;;;5008708;28;20085;-69
2023/08/23 00:17:32;;;;;;;26.15;20.08;;;;;;;;;;5012844;28;20579;-69
2023/08/23 00:19:58;;;;;;;31.27;20.13;;;;;;;;;;5022435;28;20121;-69
2023/08/23 00:22:24;;;;;;;31.98;19.55;;;;;;;;;;5020506;28;20033;-69
2023/08/23 00:24:49;;;;;;;26.20;19.70;;;;;;;;;;5027640;28;20090;-69
2023/08/23 00:27:15;;;;;;;25.83;19.35;;;;;;;;;;5025870;28;20464;-69
2023/08/23 00:29:41;;;;;;;32.88;19.95;;;;;;;;;;5024672;28;20049;-68
2023/08/23 00:32:06;;;;;;;25.70;18.95;;;;;;;;;;5028591;28;20160;-70
2023/08/23 00:34:32;;;;;;;26.60;20.27;;;;;;;;;;5028043;28;20035;-68
2023/08/23 00:36:57;;;;;;;27.83;21.52;;;;;;;;;;5031280;28;20021;-68
2023/08/23 00:39:24;;;;;;;24.20;20.38;;;;;;;;;;5030412;28;20034;-68
2023/08/23 00:41:49;;;;;;;24.33;18.75;;;;;;;;;;5031679;28;20018;-68
2023/08/23 00:44:15;;;;;;;23.58;20.08;;;;;;;;;;5031241;28;20033;-68
2023/08/23 00:46:40;;;;;;;28.10;19.85;;;;;;;;;;5031282;28;20032;-68
2023/08/23 00:49:07;;;;;;;29.48;20.80;;;;;;;;;;5031864;28;20383;-68
2023/08/23 00:51:33;;;;;;;25.05;20.23;;;;;;;;;;5031698;28;20025;-68
2023/08/23 00:54:00;;;;;;;28.30;20.60;;;;;;;;;;5031343;28;20045;-69
2023/08/23 00:56:26;;;;;;;29.45;21.25;;;;;;;;;;5031324;28;20403;-68
2023/08/23 00:58:52;;;;;;;31.20;19.85;;;;;;;;;;5029912;28;20056;-68
2023/08/23 01:01:18;;;;;;;26.70;20.40;;;;;;;;;;5030171;28;20087;-68
2023/08/23 01:03:44;;;;;;;25.88;19.55;;;;;;;;;;5031177;28;20430;-69
2023/08/23 01:06:34;;;;;;;28.50;20.60;;;;;;;;;;5029706;28;20033;-69
2023/08/23 01:09:07;;;;;;;23.63;19.73;;;;;;;;;;5013775;28;20037;-69
2023/08/23 01:12:11;;;;;;;28.40;19.83;;;;;;;;;;5030114;28;20037;-69
2023/08/23 01:14:46;;;;;;;25.02;20.15;;;;;;;;;;5028694;28;20065;-69
2023/08/23 01:17:13;;;;;;;23.13;20.50;;;;;;;;;;5029554;28;20041;-68
2023/08/23 01:19:46;;;;;;;30.08;21.00;;;;;;;;;;5031033;28;20104;-68
2023/08/23 01:22:17;;;;;;;28.20;19.75;;;;;;;;;;5031453;28;20037;-68
2023/08/23 01:24:43;;;;;;;23.70;19.45;;;;;;;;;;5030072;28;20060;-69
2023/08/23 01:27:09;;;;;;;25.90;19.35;;;;;;;;;;5030977;28;20057;-68
2023/08/23 01:29:35;;;;;;;21.73;19.10;;;;;;;;;;5030198;28;20518;-68
2023/08/23 01:32:25;;;;;;;27.42;19.70;;;;;;;;;;5034305;28;20025;-68
2023/08/23 01:34:56;;;;;;;25.02;18.77;;;;;;;;;;5034784;28;20037;-68
2023/08/23 01:37:23;;;;;;;23.80;19.95;;;;;;;;;;5033250;28;20035;-68
2023/08/23 01:39:52;;;;;;;22.45;18.40;;;;;;;;;;5034762;28;20023;-68
2023/08/23 01:42:20;;;;;;;22.83;18.63;;;;;;;;;;5034580;28;20503;-68
2023/08/23 01:44:46;;;;;;;22.40;19.23;;;;;;;;;;5034405;28;20045;-68
2023/08/23 01:47:12;;;;;;;22.13;18.13;;;;;;;;;;5033036;28;20033;-68
2023/08/23 01:49:37;;;;;;;24.80;18.73;;;;;;;;;;5034292;28;20017;-68
2023/08/23 01:52:03;;;;;;;22.25;18.75;;;;;;;;;;5015595;28;20049;-68
2023/08/23 01:54:29;;;;;;;24.45;17.80;;;;;;;;;;5012445;28;20075;-68
2023/08/23 01:56:56;;;;;;;24.50;19.27;;;;;;;;;;5014161;28;20069;-67
2023/08/23 01:59:21;;;;;;;23.38;18.95;;;;;;;;;;5014366;28;20029;-68
2023/08/23 02:01:47;;;;;;;25.83;19.13;;;;;;;;;;5014585;28;20038;-67
2023/08/23 02:04:13;;;;;;;26.25;18.63;;;;;;;;;;5014509;28;20030;-67
2023/08/23 02:06:39;;;;;;;20.58;17.73;;;;;;;;;;5014217;28;20137;-68
2023/08/23 02:09:04;;;;;;;21.25;18.63;;;;;;;;;;5014461;28;20026;-69
2023/08/23 02:11:32;;;;;;;21.30;18.23;;;;;;;;;;5012875;28;20030;-69
2023/08/23 02:13:58;;;;;;;23.40;18.58;;;;;;;;;;5012737;28;20026;-68
2023/08/23 02:16:29;;;;;;;22.98;18.48;;;;;;;;;;4997184;28;20120;-68
2023/08/23 02:18:55;;;;;;;24.15;18.35;;;;;;;;;;5012755;28;20475;-68
2023/08/23 02:21:21;;;;;;;25.85;18.17;;;;;;;;;;5012820;28;20032;-67
2023/08/23 02:23:46;;;;;;;23.58;18.60;;;;;;;;;;5014009;28;20511;-69
2023/08/23 02:26:13;;;;;;;25.55;18.00;;;;;;;;;;5030010;28;20029;-67
2023/08/23 02:28:39;;;;;;;25.42;17.38;;;;;;;;;;5036514;28;20041;-68
2023/08/23 02:31:05;;;;;;;27.70;18.15;;;;;;;;;;5033489;28;20439;-68
2023/08/23 02:33:33;;;;;;;20.80;18.48;;;;;;;;;;5033830;28;20084;-68
2023/08/23 02:35:58;;;;;;;34.05;17.88;;;;;;;;;;5032117;28;20025;-69
2023/08/23 02:38:26;;;;;;;24.20;17.92;;;;;;;;;;5033633;28;20423;-69
2023/08/23 02:40:54;;;;;;;32.17;18.50;;;;;;;;;;5048781;28;20121;-68
2023/08/23 02:43:20;;;;;;;21.50;17.80;;;;;;;;;;5031249;28;20124;-68
2023/08/23 02:45:47;;;;;;;28.30;18.55;;;;;;;;;;5048463;28;20482;-68
2023/08/23 02:48:13;;;;;;;23.45;18.30;;;;;;;;;;5032140;28;20045;-68
2023/08/23 02:50:39;;;;;;;23.33;18.48;;;;;;;;;;5033297;28;20032;-68
2023/08/23 02:53:05;;;;;;;27.50;19.13;;;;;;;;;;5033192;28;20346;-68
2023/08/23 02:55:35;;;;;;;24.40;18.50;;;;;;;;;;5033204;28;20108;-68
2023/08/23 02:58:00;;;;;;;24.88;18.70;;;;;;;;;;5031568;28;20568;-68
2023/08/23 03:00:26;;;;;;;23.20;19.10;;;;;;;;;;5011428;28;20033;-68
2023/08/23 03:02:52;;;;;;;22.05;18.45;;;;;;;;;;5042418;28;20091;-68
2023/08/23 03:05:17;;;;;;;26.83;19.52;;;;;;;;;;5051541;28;20036;-68
2023/08/23 03:07:43;;;;;;;26.40;19.23;;;;;;;;;;5039858;28;20033;-68
2023/08/23 03:10:10;;;;;;;30.40;18.55;;;;;;;;;;5042357;28;20179;-68
2023/08/23 03:12:36;;;;;;;25.70;19.42;;;;;;;;;;5029253;28;20061;-69
2023/08/23 03:15:03;;;;;;;24.58;19.30;;;;;;;;;;5028912;28;20107;-68
2023/08/23 03:17:29;;;;;;;23.70;19.38;;;;;;;;;;5031514;28;20033;-69
2023/08/23 03:19:56;;;;;;;19.77;17.60;;;;;;;;;;5032145;28;20049;-68
2023/08/23 03:22:22;;;;;;;28.13;19.13;;;;;;;;;;5017248;28;20402;-69
2023/08/23 03:24:49;;;;;;;29.17;19.90;;;;;;;;;;5021489;28;20112;-69
2023/08/23 03:27:18;;;;;;;24.17;18.98;;;;;;;;;;5028393;28;20088;-68
2023/08/23 03:29:46;;;;;;;24.85;18.90;;;;;;;;;;5022504;28;20148;-68
2023/08/23 03:32:14;;;;;;;27.60;22.52;;;;;;;;;;5032237;28;20123;-70
2023/08/23 03:34:40;;;;;;;29.80;21.20;;;;;;;;;;5025457;28;20283;-69
2023/08/23 03:37:06;;;;;;;27.52;19.35;;;;;;;;;;5032133;28;20076;-69
2023/08/23 03:39:32;;;;;;;30.73;19.77;;;;;;;;;;5030654;28;20060;-69
2023/08/23 03:41:57;;;;;;;26.08;19.88;;;;;;;;;;5039300;28;20062;-69
2023/08/23 03:44:23;;;;;;;25.58;20.20;;;;;;;;;;5049590;28;20457;-69
2023/08/23 03:46:49;;;;;;;28.95;21.40;;;;;;;;;;5049475;28;20509;-68
2023/08/23 03:49:15;;;;;;;27.20;21.73;;;;;;;;;;5030828;28;20057;-69
2023/08/23 03:51:42;;;;;;;34.17;21.65;;;;;;;;;;5035183;28;20036;-69
2023/08/23 03:54:07;;;;;;;36.03;21.65;;;;;;;;;;5040538;28;20025;-69
2023/08/23 03:56:33;;;;;;;30.10;21.15;;;;;;;;;;5029922;28;20116;-69
2023/08/23 03:58:59;;;;;;;50.08;23.65;;;;;;;;;;5022891;28;20096;-69
2023/08/23 04:01:25;;;;;;;41.58;21.10;;;;;;;;;;5028744;28;20076;-69
2023/08/23 04:03:51;;;;;;;36.67;22.85;;;;;;;;;;5031116;28;20044;-68
2023/08/23 04:06:16;;;;;;;28.02;21.20;;;;;;;;;;5033013;28;20064;-69
2023/08/23 04:08:43;;;;;;;28.00;20.42;;;;;;;;;;5025700;28;20040;-69
2023/08/23 04:11:09;;;;;;;38.53;21.77;;;;;;;;;;5022266;28;20025;-69
2023/08/23 04:13:34;;;;;;;44.80;22.20;;;;;;;;;;5030174;28;20533;-69
2023/08/23 04:16:00;;;;;;;33.42;21.77;;;;;;;;;;5025782;28;20149;-69
2023/08/23 04:18:26;;;;;;;30.60;21.83;;;;;;;;;;5028331;28;20032;-68
2023/08/23 04:20:59;;;;;;;38.88;21.27;;;;;;;;;;5014845;28;20134;-67
2023/08/23 04:23:25;;;;;;;33.25;20.67;;;;;;;;;;5026764;28;20025;-67
2023/08/23 04:25:51;;;;;;;33.17;20.58;;;;;;;;;;5046814;28;20080;-68
2023/08/23 04:28:18;;;;;;;27.83;20.08;;;;;;;;;;5022526;28;20099;-70
2023/08/23 04:30:44;;;;;;;35.78;20.25;;;;;;;;;;5029144;28;20116;-68
2023/08/23 04:33:11;;;;;;;31.70;20.42;;;;;;;;;;5024599;28;20500;-69
2023/08/23 04:35:37;;;;;;;30.42;20.33;;;;;;;;;;5039637;28;20090;-68
2023/08/23 04:38:04;;;;;;;32.67;20.45;;;;;;;;;;5050739;28;20029;-68
2023/08/23 04:40:30;;;;;;;35.47;20.27;;;;;;;;;;5050054;28;20025;-67
2023/08/23 04:42:55;;;;;;;34.97;20.10;;;;;;;;;;5049862;28;20449;-68
2023/08/23 04:45:22;;;;;;;27.92;18.88;;;;;;;;;;5050285;28;20121;-68
2023/08/23 04:47:51;;;;;;;27.15;19.80;;;;;;;;;;5049860;28;20060;-68
2023/08/23 04:50:17;;;;;;;33.17;21.00;;;;;;;;;;5050027;28;20432;-70
2023/08/23 04:52:45;;;;;;;32.88;20.70;;;;;;;;;;5050154;28;20048;-69
2023/08/23 04:55:10;;;;;;;34.22;20.60;;;;;;;;;;5049949;28;20025;-69
2023/08/23 04:57:37;;;;;;;27.95;19.48;;;;;;;;;;5051352;28;20033;-68
2023/08/23 05:00:06;;;;;;;33.13;21.45;;;;;;;;;;5049536;28;20089;-67
2023/08/23 05:02:32;;;;;;;27.70;20.00;;;;;;;;;;5049866;28;20033;-68
2023/08/23 05:04:58;;;;;;;28.63;22.35;;;;;;;;;;5049941;28;20147;-68
2023/08/23 05:07:24;;;;;;;35.20;22.08;;;;;;;;;;5054818;28;20465;-69
2023/08/23 05:09:50;;;;;;;29.73;21.58;;;;;;;;;;5044619;28;20056;-68
2023/08/23 05:12:16;;;;;;;39.97;22.83;;;;;;;;;;5033819;28;20513;-67
2023/08/23 05:14:41;;;;;;;39.78;22.10;;;;;;;;;;5033881;28;20090;-67
2023/08/23 05:17:07;;;;;;;35.60;22.20;;;;;;;;;;5033059;28;20037;-67
2023/08/23 05:19:34;;;;;;;41.72;22.48;;;;;;;;;;5029631;28;20079;-67
2023/08/23 05:22:01;;;;;;;32.90;21.23;;;;;;;;;;5013374;28;20038;-67
2023/08/23 05:24:27;;;;;;;30.75;21.75;;;;;;;;;;5013514;28;20399;-68
2023/08/23 05:26:53;;;;;;;34.15;20.58;;;;;;;;;;5013411;28;20041;-68
2023/08/23 05:29:18;;;;;;;25.70;19.90;;;;;;;;;;5013558;28;20049;-68
2023/08/23 05:31:44;;;;;;;37.47;23.73;;;;;;;;;;5050396;28;20108;-68
2023/08/23 05:34:10;;;;;;;33.65;22.08;;;;;;;;;;5035894;28;20039;-67
2023/08/23 05:36:35;;;;;;;33.17;21.60;;;;;;;;;;5035317;28;20072;-67
2023/08/23 05:39:03;;;;;;;42.55;23.45;;;;;;;;;;5035260;28;20032;-68
2023/08/23 05:41:29;;;;;;;39.85;20.60;;;;;;;;;;5037593;28;20470;-67
2023/08/23 05:43:55;;;;;;;33.17;22.13;;;;;;;;;;5040140;28;20045;-68
2023/08/23 05:46:21;;;;;;;35.90;21.45;;;;;;;;;;5038024;28;20061;-68
2023/08/23 05:48:49;;;;;;;31.52;21.65;;;;;;;;;;5040854;28;20497;-68
2023/08/23 05:51:15;;;;;;;40.95;21.92;;;;;;;;;;5033485;28;20372;-67
2023/08/23 05:53:40;;;;;;;35.33;20.80;;;;;;;;;;5033490;28;20067;-67
2023/08/23 05:56:06;;;;;;;45.92;22.45;;;;;;;;;;5042265;28;20075;-68
2023/08/23 05:58:32;;;;;;;41.20;21.58;;;;;;;;;;5042080;28;20108;-68
2023/08/23 06:00:57;;;;;;;34.45;20.25;;;;;;;;;;5041695;28;20095;-68
2023/08/23 06:03:23;;;;;;;38.72;22.83;;;;;;;;;;5042910;28;20105;-68
2023/08/23 06:05:54;;;;;;;34.33;20.88;;;;;;;;;;5045501;28;20037;-68
2023/08/23 06:08:20;;;;;;;31.30;19.73;;;;;;;;;;5045236;28;20127;-67
2023/08/23 06:10:46;;;;;;;42.55;22.45;;;;;;;;;;5042109;28;20104;-68
2023/08/23 06:13:11;;;;;;;46.22;22.42;;;;;;;;;;5041346;28;20075;-68
2023/08/23 06:15:37;;;;;;;32.25;19.65;;;;;;;;;;5036081;28;20413;-67
2023/08/23 06:18:03;;;;;;;29.35;19.63;;;;;;;;;;5032178;28;20107;-67
2023/08/23 06:20:28;;;;;;;32.17;19.83;;;;;;;;;;5034390;28;20018;-69
2023/08/23 06:22:56;;;;;;;39.95;20.73;;;;;;;;;;5032877;28;20157;-68
2023/08/23 06:25:22;;;;;;;36.45;19.15;;;;;;;;;;5029280;28;20021;-68
2023/08/23 06:27:48;;;;;;;24.85;18.88;;;;;;;;;;5026228;28;20064;-68
2023/08/23 06:30:17;;;;;;;24.42;18.67;;;;;;;;;;5022272;28;20049;-68
2023/08/23 06:32:46;;;;;;;33.67;19.70;;;;;;;;;;5031552;28;20041;-68
2023/08/23 06:35:13;;;;;;;26.25;18.55;;;;;;;;;;5026183;28;20518;-68
2023/08/23 06:37:40;;;;;;;29.90;18.08;;;;;;;;;;5027973;28;20443;-67
2023/08/23 06:40:08;;;;;;;26.75;18.38;;;;;;;;;;5023822;28;20353;-66
2023/08/23 06:42:34;;;;;;;27.08;17.58;;;;;;;;;;5023213;28;20036;-67
2023/08/23 06:45:00;;;;;;;30.20;19.10;;;;;;;;;;5024933;28;20037;-67
2023/08/23 06:47:25;;;;;;;27.98;17.92;;;;;;;;;;5025678;28;20462;-67
2023/08/23 06:49:51;;;;;;;30.55;18.13;;;;;;;;;;5024885;28;20082;-71
2023/08/23 06:52:17;;;;;;;29.30;18.20;;;;;;;;;;5022783;28;20382;-71
2023/08/23 06:54:42;;;;;;;29.25;18.73;;;;;;;;;;5022464;28;20037;-72
2023/08/23 06:57:08;;;;;;;26.35;19.25;;;;;;;;;;5023706;28;20063;-72
2023/08/23 06:59:34;;;;;;;26.40;19.00;;;;;;;;;;5026633;28;20135;-71
2023/08/23 07:02:00;;;;;;;25.77;17.50;;;;;;;;;;5026416;28;20395;-71
2023/08/23 07:04:25;;;;;;;25.83;18.58;;;;;;;;;;5026603;28;20184;-72
2023/08/23 07:06:51;;;;;;;25.17;18.08;;;;;;;;;;5025852;28;20036;-71
2023/08/23 07:09:17;;;;;;;25.15;15.45;;;;;;;;;;5023350;28;20033;-71
2023/08/23 07:11:42;;;;;;;24.45;16.48;;;;;;;;;;5024876;28;20076;-70
2023/08/23 07:14:09;;;;;;;25.08;15.25;;;;;;;;;;5026687;28;20079;-69
2023/08/23 07:16:34;;;;;;;21.73;15.15;;;;;;;;;;5026628;28;20387;-70
2023/08/23 07:19:03;;;;;;;16.92;12.32;;;;;;;;;;5026802;28;20060;-70
2023/08/23 07:21:29;;;;;;;24.75;13.32;;;;;;;;;;5019802;28;20053;-70
2023/08/23 07:23:55;;;;;;;14.80;11.15;;;;;;;;;;5025425;28;20559;-71
2023/08/23 07:26:21;;;;;;;15.82;10.65;;;;;;;;;;5023055;28;20377;-71
2023/08/23 07:28:47;;;;;;;13.48;11.45;;;;;;;;;;5018603;28;20467;-71
2023/08/23 07:31:12;;;;;;;14.88;11.27;;;;;;;;;;5019929;28;20056;-71
2023/08/23 07:33:38;;;;;;;15.27;11.85;;;;;;;;;;5020345;28;20068;-70
2023/08/23 07:36:04;;;;;;;16.40;13.13;;;;;;;;;;5031040;28;20021;-70
2023/08/23 07:38:32;;;;;;;19.25;13.23;;;;;;;;;;5039598;28;20029;-71
2023/08/23 07:41:05;;;;;;;16.23;13.65;;;;;;;;;;5029073;28;20831;-70
2023/08/23 07:43:31;;;;;;;19.83;16.42;;;;;;;;;;5040370;28;20033;-71
2023/08/23 07:45:58;;;;;;;17.23;13.32;;;;;;;;;;5041930;28;20430;-70
2023/08/23 07:48:25;;;;;;;21.48;13.75;;;;;;;;;;5042570;28;20041;-70
2023/08/23 07:51:01;;;;;;;21.13;14.52;;;;;;;;;;5022901;28;20503;-72
2023/08/23 07:53:29;;;;;;;16.90;12.93;;;;;;;;;;5030463;28;20403;-71
2023/08/23 07:55:55;;;;;;;21.92;13.40;;;;;;;;;;5042043;28;20032;-70
2023/08/23 07:58:21;;;;;;;20.52;14.10;;;;;;;;;;5042591;28;20091;-70
2023/08/23 08:00:47;;;;;;;24.80;13.98;;;;;;;;;;5034487;28;20025;-70
2023/08/23 08:03:13;;;;;;;20.23;15.43;;;;;;;;;;5036382;28;20095;-70
2023/08/23 08:05:38;;;;;;;21.42;14.68;;;;;;;;;;5028407;28;20057;-70
2023/08/23 08:08:05;;;;;;;24.90;15.57;;;;;;;;;;5029442;28;20061;-69
2023/08/23 08:10:31;;;;;;;22.10;13.70;;;;;;;;;;5030532;28;20096;-69
2023/08/23 08:13:00;;;;;;;20.80;14.30;;;;;;;;;;5038806;28;20059;-69
2023/08/23 08:15:27;;;;;;;20.02;15.18;;;;;;;;;;5030999;28;20033;-69
2023/08/23 08:17:53;;;;;;;19.80;15.10;;;;;;;;;;5028085;28;20037;-70
2023/08/23 08:20:19;;;;;;;17.80;13.07;;;;;;;;;;5030406;28;20075;-69
2023/08/23 08:22:45;;;;;;;18.88;14.60;;;;;;;;;;5028057;28;20045;-70
2023/08/23 08:25:11;;;;;;;17.98;14.18;;;;;;;;;;5026191;28;20055;-69
2023/08/23 08:27:37;;;;;;;18.77;13.02;;;;;;;;;;5030299;28;20060;-69
2023/08/23 08:30:03;;;;;;;18.80;12.60;;;;;;;;;;5033719;28;20475;-71
2023/08/23 08:32:29;;;;;;;16.95;13.15;;;;;;;;;;5028677;28;20401;-70
2023/08/23 08:34:57;;;;;;;17.98;11.63;;;;;;;;;;5028205;28;20038;-72
2023/08/23 08:37:25;;;;;;;14.32;10.68;;;;;;;;;;5043721;28;20094;-70
2023/08/23 08:39:50;;;;;;;14.75;10.80;;;;;;;;;;5030021;28;20069;-71
2023/08/23 08:42:16;;;;;;;13.60;10.95;;;;;;;;;;5034193;28;20065;-71
2023/08/23 08:44:46;;;;;;;15.93;11.00;;;;;;;;;;5034366;28;20100;-71
2023/08/23 08:47:12;;;;;;;15.43;10.75;;;;;;;;;;5033646;28;20132;-70
2023/08/23 08:49:38;;;;;;;13.35;11.15;;;;;;;;;;5033443;28;20025;-70
2023/08/23 08:52:05;;;;;;;14.15;10.93;;;;;;;;;;5033253;28;20033;-71
2023/08/23 08:54:33;;;;;;;14.07;11.35;;;;;;;;;;5033949;28;20037;-72
2023/08/23 08:57:00;;;;;;;18.23;9.40;;;;;;;;;;5034291;28;20037;-70
2023/08/23 08:59:26;;;;;;;11.65;9.07;;;;;;;;;;5034620;28;20049;-70
2023/08/23 09:01:54;;;;;;;13.13;10.18;;;;;;;;;;5032818;28;20033;-72
2023/08/23 09:04:20;;;;;;;15.93;10.05;;;;;;;;;;5034424;28;20094;-71
2023/08/23 09:06:47;;;;;;;19.10;9.90;;;;;;;;;;5033954;28;20044;-70
2023/08/23 09:09:12;;;;;;;15.45;9.60;;;;;;;;;;5029122;28;20501;-72
2023/08/23 09:11:39;;;;;;;11.23;9.18;;;;;;;;;;5016777;28;20056;-72
2023/08/23 09:14:20;;;;;;;11.48;9.57;;;;;;;;;;5036744;28;20029;-72
2023/08/23 09:16:47;;;;;;;13.25;9.73;;;;;;;;;;5041680;28;20498;-70
2023/08/23 09:19:13;;;;;;;11.63;9.25;;;;;;;;;;5047767;28;20024;-71
2023/08/23 09:21:49;;;;;;;14.02;9.63;;;;;;;;;;5040024;28;20402;-70
2023/08/23 09:24:16;;;;;;;13.93;9.48;;;;;;;;;;5033702;28;20439;-71
2023/08/23 09:26:44;;;;;;;12.10;9.50;;;;;;;;;;5033917;28;20156;-71
2023/08/23 09:29:10;;;;;;;12.50;9.55;;;;;;;;;;5033722;28;20029;-71
2023/08/23 09:31:41;;;;;;;14.88;8.73;;;;;;;;;;5033154;28;20565;-70
2023/08/23 09:34:15;;;;;;;11.45;8.50;;;;;;;;;;5033759;28;20117;-70
2023/08/23 09:36:40;;;;;;;12.38;8.45;;;;;;;;;;5049275;28;20048;-71
2023/08/23 09:39:11;;;;;;;10.30;8.27;;;;;;;;;;5040613;28;20026;-71
2023/08/23 09:41:43;;;;;;;11.35;8.77;;;;;;;;;;5038578;28;20033;-71
2023/08/23 09:44:09;;;;;;;16.25;8.90;;;;;;;;;;5044855;28;20040;-70
2023/08/23 09:46:36;;;;;;;13.73;9.02;;;;;;;;;;5033088;28;20029;-70
2023/08/23 09:49:07;;;;;;;13.38;8.93;;;;;;;;;;5042699;28;20038;-71
2023/08/23 09:51:37;;;;;;;14.48;8.00;;;;;;;;;;5039097;28;20038;-72
2023/08/23 09:54:29;;;;;;;9.90;7.85;;;;;;;;;;5040516;28;20479;-72
2023/08/23 09:56:55;;;;;;;12.13;7.30;;;;;;;;;;5043183;28;20033;-71
2023/08/23 09:59:21;;;;;;;10.95;8.02;;;;;;;;;;5052190;28;20497;-71
2023/08/23 10:01:48;;;;;;;9.25;7.20;;;;;;;;;;5052939;28;20062;-71
2023/08/23 10:04:15;;;;;;;13.40;7.05;;;;;;;;;;5053466;28;20589;-72
2023/08/23 10:06:42;;;;;;;9.50;6.90;;;;;;;;;;5047197;28;20463;-72
2023/08/23 10:09:09;;;;;;;10.80;6.82;;;;;;;;;;5044387;28;20104;-72
2023/08/23 10:11:35;;;;;;;10.48;7.30;;;;;;;;;;5054195;28;20128;-71
2023/08/23 10:14:04;;;;;;;7.78;6.40;;;;;;;;;;5052696;28;20027;-71
2023/08/23 10:16:31;;;;;;;7.93;5.97;;;;;;;;;;5030837;28;20108;-70
2023/08/23 10:18:57;;;;;;;9.75;5.97;;;;;;;;;;5030453;28;20033;-70
2023/08/23 10:21:26;;;;;;;10.18;5.78;;;;;;;;;;5048183;28;20478;-72
2023/08/23 10:23:52;;;;;;;7.82;4.68;;;;;;;;;;5040007;28;20032;-71
2023/08/23 10:26:21;;;;;;;7.80;4.05;;;;;;;;;;5053169;28;20450;-71
2023/08/23 10:28:51;;;;;;;6.65;4.22;;;;;;;;;;5051149;28;20463;-71
2023/08/23 10:31:28;;;;;;;6.55;4.38;;;;;;;;;;5032491;28;20041;-72
2023/08/23 10:33:58;;;;;;;10.85;4.00;;;;;;;;;;5032466;28;20152;-70
2023/08/23 10:36:27;;;;;;;6.60;4.57;;;;;;;;;;5047865;28;20084;-70
2023/08/23 10:38:55;;;;;;;9.90;3.80;;;;;;;;;;5039946;28;20049;-71
2023/08/23 10:41:22;;;;;;;7.85;4.32;;;;;;;;;;5033279;28;20025;-70
2023/08/23 10:43:48;;;;;;;7.60;3.97;;;;;;;;;;5032914;28;20030;-71
2023/08/23 10:46:17;;;;;;;8.43;3.92;;;;;;;;;;5030842;28;20025;-71
2023/08/23 10:48:44;;;;;;;6.95;4.00;;;;;;;;;;5032610;28;20017;-73
2023/08/23 10:51:11;;;;;;;6.38;3.55;;;;;;;;;;5047886;28;20069;-72
2023/08/23 10:53:36;;;;;;;5.78;3.95;;;;;;;;;;5029051;28;20033;-71
2023/08/23 10:56:02;;;;;;;7.45;4.00;;;;;;;;;;5032120;28;20038;-72
2023/08/23 10:58:30;;;;;;;7.35;3.90;;;;;;;;;;5031094;28;20026;-72
2023/08/23 11:00:56;;;;;;;7.15;4.03;;;;;;;;;;5028489;28;20029;-72
2023/08/23 11:03:22;;;;;;;8.93;4.63;;;;;;;;;;5031738;28;20398;-72
2023/08/23 11:05:48;;;;;;;8.70;4.63;;;;;;;;;;5031672;28;20134;-73
2023/08/23 11:08:15;;;;;;;5.88;4.60;;;;;;;;;;5032139;28;20386;-71
2023/08/23 11:10:42;;;;;;;5.80;4.13;;;;;;;;;;5031536;28;20047;-71
2023/08/23 11:13:08;;;;;;;8.18;4.28;;;;;;;;;;5031372;28;20187;-71
2023/08/23 11:15:34;;;;;;;5.80;4.68;;;;;;;;;;5030690;28;20554;-71
2023/08/23 11:18:03;;;;;;;5.93;4.32;;;;;;;;;;5031347;28;20030;-73
2023/08/23 11:20:29;;;;;;;5.20;3.83;;;;;;;;;;5031955;28;20034;-72
2023/08/23 11:22:54;;;;;;;6.65;3.85;;;;;;;;;;5030008;28;20176;-71
2023/08/23 11:25:21;;;;;;;5.28;4.07;;;;;;;;;;5031612;28;20042;-71
2023/08/23 11:27:46;;;;;;;6.85;3.70;;;;;;;;;;5031577;28;20036;-69
2023/08/23 11:30:12;;;;;;;6.75;4.43;;;;;;;;;;5032054;28;20076;-72
2023/08/23 11:32:38;;;;;;;9.23;5.00;;;;;;;;;;5030522;28;20490;-72
2023/08/23 11:35:06;;;;;;;10.73;7.05;;;;;;;;;;5030622;28;20029;-71
2023/08/23 11:37:34;;;;;;;11.48;4.65;;;;;;;;;;5030957;28;20056;-69
2023/08/23 11:40:07;;;;;;;5.47;4.03;;;;;;;;;;5032345;28;20038;-71
2023/08/23 11:42:36;;;;;;;6.28;4.45;;;;;;;;;;5031408;28;20124;-71
2023/08/23 11:45:04;;;;;;;5.05;4.07;;;;;;;;;;5031860;28;20075;-70
2023/08/23 11:47:30;;;;;;;9.77;3.95;;;;;;;;;;5031937;28;20041;-70
2023/08/23 11:49:56;;;;;;;7.35;4.40;;;;;;;;;;5031869;28;20075;-70
2023/08/23 11:52:22;;;;;;;5.03;4.20;;;;;;;;;;5032051;28;20460;-71
2023/08/23 11:54:53;;;;;;;7.55;4.05;;;;;;;;;;5031824;28;20028;-71
2023/08/23 11:57:20;;;;;;;5.93;3.40;;;;;;;;;;5031850;28;20214;-70
2023/08/23 11:59:46;;;;;;;6.80;3.42;;;;;;;;;;5032272;28;20044;-71
2023/08/23 12:02:12;;;;;;;7.32;3.50;;;;;;;;;;5032125;28;20033;-71
2023/08/23 12:04:41;;;;;;;5.50;3.88;;;;;;;;;;5031945;28;20395;-74
2023/08/23 12:07:07;;;;;;;6.78;3.85;;;;;;;;;;5046852;28;20125;-71
2023/08/23 12:09:33;;;;;;;5.95;3.50;;;;;;;;;;5031570;28;20104;-71
2023/08/23 12:12:02;;;;;;;5.07;3.80;;;;;;;;;;5032052;28;20041;-71
2023/08/23 12:14:29;;;;;;;5.63;3.92;;;;;;;;;;5031762;28;20030;-72
2023/08/23 12:16:55;;;;;;;5.75;3.80;;;;;;;;;;5031640;28;20065;-70
2023/08/23 12:19:21;;;;;;;7.20;4.40;;;;;;;;;;5031839;28;20033;-71
2023/08/23 12:21:48;;;;;;;7.18;3.97;;;;;;;;;;5031631;28;20036;-71
2023/08/23 12:24:13;;;;;;;5.28;3.78;;;;;;;;;;5046794;28;20052;-70
2023/08/23 12:26:40;;;;;;;6.15;3.75;;;;;;;;;;5031548;28;20055;-72
2023/08/23 12:29:05;;;;;;;5.03;3.85;;;;;;;;;;5031330;28;20033;-72
2023/08/23 12:31:31;;;;;;;6.07;4.07;;;;;;;;;;5030288;28;20062;-71
2023/08/23 12:33:57;;;;;;;5.72;4.38;;;;;;;;;;5046875;28;20044;-70
2023/08/23 12:36:24;;;;;;;8.45;4.38;;;;;;;;;;5031502;28;20036;-72
2023/08/23 12:38:50;;;;;;;5.63;3.75;;;;;;;;;;5045975;28;20514;-72
2023/08/23 12:41:17;;;;;;;4.50;3.55;;;;;;;;;;5034571;28;20113;-71
2023/08/23 12:43:43;;;;;;;6.80;3.90;;;;;;;;;;5036138;28;20517;-71
2023/08/23 12:46:09;;;;;;;5.35;3.38;;;;;;;;;;5041687;28;20029;-72
2023/08/23 12:48:35;;;;;;;5.03;3.10;;;;;;;;;;5038370;28;20033;-73
2023/08/23 12:51:01;;;;;;;6.70;3.80;;;;;;;;;;5039697;28;20029;-71
2023/08/23 12:53:27;;;;;;;6.20;3.83;;;;;;;;;;5031015;28;20051;-70
2023/08/23 12:55:54;;;;;;;5.32;4.20;;;;;;;;;;5030896;28;20032;-71
2023/08/23 12:58:20;;;;;;;6.35;3.55;;;;;;;;;;5039284;28;20125;-70
2023/08/23 13:00:47;;;;;;;6.85;4.05;;;;;;;;;;5039009;28;20116;-70
2023/08/23 13:03:13;;;;;;;4.75;3.95;;;;;;;;;;5031004;28;20033;-72
2023/08/23 13:05:38;;;;;;;6.32;3.42;;;;;;;;;;5042595;28;20028;-70
2023/08/23 13:08:05;;;;;;;6.43;3.80;;;;;;;;;;5033702;28;20048;-72
2023/08/23 13:10:32;;;;;;;5.05;3.58;;;;;;;;;;5031407;28;20478;-70
2023/08/23 13:12:58;;;;;;;5.93;4.13;;;;;;;;;;5031169;28;20040;-72
2023/08/23 13:15:24;;;;;;;6.65;4.10;;;;;;;;;;5030609;28;20025;-70
2023/08/23 13:17:54;;;;;;;5.78;4.30;;;;;;;;;;5038883;28;20033;-73
2023/08/23 13:20:19;;;;;;;6.50;4.60;;;;;;;;;;5032918;28;20395;-70
2023/08/23 13:22:45;;;;;;;5.00;3.95;;;;;;;;;;5040335;28;20029;-70
2023/08/23 13:25:11;;;;;;;7.53;4.20;;;;;;;;;;5042534;28;20033;-73
2023/08/23 13:27:37;;;;;;;5.13;4.15;;;;;;;;;;5043369;28;20090;-71
2023/08/23 13:30:03;;;;;;;5.68;3.92;;;;;;;;;;5046176;28;20024;-71
2023/08/23 13:32:28;;;;;;;6.50;4.20;;;;;;;;;;5042566;28;20025;-72
2023/08/23 13:34:54;;;;;;;4.38;3.65;;;;;;;;;;5040256;28;20075;-72
2023/08/23 13:37:20;;;;;;;8.93;4.25;;;;;;;;;;5051795;28;20415;-71
2023/08/23 13:39:45;;;;;;;5.40;4.47;;;;;;;;;;5054233;28;20086;-71
2023/08/23 13:42:11;;;;;;;10.93;4.93;;;;;;;;;;5054662;28;20032;-71
2023/08/23 13:44:37;;;;;;;8.55;4.63;;;;;;;;;;5054129;28;20021;-71
2023/08/23 13:47:02;;;;;;;5.93;4.00;;;;;;;;;;5053467;28;20048;-69
2023/08/23 13:49:28;;;;;;;6.65;4.30;;;;;;;;;;5053159;28;20074;-72
2023/08/23 13:51:54;;;;;;;5.35;4.40;;;;;;;;;;5050866;28;20094;-72
2023/08/23 13:54:19;;;;;;;9.52;5.13;;;;;;;;;;5052294;28;20028;-71
2023/08/23 13:56:46;;;;;;;6.13;4.18;;;;;;;;;;5053578;28;20068;-70
2023/08/23 13:59:12;;;;;;;6.03;4.20;;;;;;;;;;5054859;28;20021;-70
2023/08/23 14:01:38;;;;;;;4.13;3.47;;;;;;;;;;5053064;28;20044;-70
2023/08/23 14:04:03;;;;;;;5.95;4.03;;;;;;;;;;5052443;28;20017;-70
2023/08/23 14:06:30;;;;;;;4.78;4.03;;;;;;;;;;5053508;28;20043;-71
2023/08/23 14:08:56;;;;;;;5.30;4.13;;;;;;;;;;5054002;28;20029;-71
2023/08/23 14:11:22;;;;;;;6.57;4.20;;;;;;;;;;5047436;28;20040;-70
2023/08/23 14:13:47;;;;;;;5.43;3.60;;;;;;;;;;5025995;28;20079;-70
2023/08/23 14:16:13;;;;;;;6.68;4.00;;;;;;;;;;5037126;28;20042;-72
2023/08/23 14:18:39;;;;;;;6.43;3.85;;;;;;;;;;5045350;28;20017;-71
2023/08/23 14:21:04;;;;;;;4.93;3.67;;;;;;;;;;5025810;28;20116;-70
2023/08/23 14:23:30;;;;;;;11.23;4.65;;;;;;;;;;5024870;28;20075;-70